Time;durP1;ratioP1;P1;durP2;ratioP2;P2;SDS_P1;SDS_P2;PMS_P1;PMS_P2;Temp;Humidity;BMP_temperature;BMP_pressure;BME280_temperature;BME280_humidity;BME280_pressure;Samples;Min_cycle;Max_cycle;Signal;HPM_P1;HPM_P2
2023/06/01 00:01:59;;;;;;;19.80;9.10;;;;;;;14.03;100.00;97819.97;5069454;28;20024;-74
2023/06/01 00:04:25;;;;;;;17.63;8.70;;;;;;;13.99;100.00;97813.09;5069756;28;20478;-75
2023/06/01 00:06:50;;;;;;;15.85;10.13;;;;;;;13.97;100.00;97815.03;5069580;28;20103;-75
2023/06/01 00:09:17;;;;;;;21.77;9.60;;;;;;;13.91;100.00;97812.78;5061719;28;20107;-75
2023/06/01 00:11:42;;;;;;;19.17;10.00;;;;;;;13.89;100.00;97826.34;5049740;28;20403;-75
2023/06/01 00:14:08;;;;;;;18.67;9.10;;;;;;;13.90;100.00;97821.84;5049678;28;20029;-75
2023/06/01 00:16:33;;;;;;;13.02;8.43;;;;;;;13.82;100.00;97816.97;5049467;28;20474;-75
2023/06/01 00:19:01;;;;;;;20.67;10.05;;;;;;;13.80;100.00;97820.75;5049452;28;20475;-74
2023/06/01 00:21:27;;;;;;;17.58;9.45;;;;;;;13.75;100.00;97826.44;5049530;28;20036;-75
2023/06/01 00:26:36;;;;;;;15.48;9.50;;;;;;;13.72;100.00;97823.13;5050957;28;20090;-75
2023/06/01 00:29:02;;;;;;;17.27;8.73;;;;;;;13.64;100.00;97812.03;5049089;28;20029;-75
2023/06/01 00:31:27;;;;;;;18.58;8.70;;;;;;;13.63;100.00;97823.78;5049390;28;20069;-75
2023/06/01 00:33:53;;;;;;;18.42;9.55;;;;;;;13.55;100.00;97826.97;5049340;28;20112;-76
2023/06/01 00:36:20;;;;;;;13.27;8.38;;;;;;;13.53;100.00;97824.38;5049453;28;20455;-76
2023/06/01 00:38:45;;;;;;;16.77;9.38;;;;;;;13.50;100.00;97827.28;5059860;28;20071;-75
2023/06/01 00:41:11;;;;;;;26.02;9.73;;;;;;;13.48;100.00;97825.66;5070399;28;20056;-75
2023/06/01 00:43:37;;;;;;;18.98;9.07;;;;;;;13.46;100.00;97820.41;5069069;28;20032;-75
2023/06/01 00:46:02;;;;;;;21.65;8.05;;;;;;;13.48;100.00;97821.16;5059023;28;20025;-75
2023/06/01 00:48:28;;;;;;;16.50;7.35;;;;;;;13.46;100.00;97825.78;5049174;28;20029;-75
2023/06/01 00:50:54;;;;;;;15.10;7.38;;;;;;;13.38;100.00;97820.06;5032319;28;20059;-76
2023/06/01 00:53:20;;;;;;;20.33;8.57;;;;;;;13.35;100.00;97827.50;5049346;28;20503;-75
2023/06/01 00:55:46;;;;;;;14.27;8.68;;;;;;;13.39;100.00;97826.31;5049149;28;20408;-75
2023/06/01 00:58:13;;;;;;;13.50;7.78;;;;;;;13.39;100.00;97824.50;5048912;28;20739;-75
2023/06/01 01:00:39;;;;;;;11.55;7.90;;;;;;;13.41;100.00;97821.72;5049088;28;20432;-75
2023/06/01 01:03:07;;;;;;;14.68;8.32;;;;;;;13.39;100.00;97827.19;5067133;28;20393;-75
2023/06/01 01:05:33;;;;;;;20.48;9.38;;;;;;;13.40;100.00;97828.91;5070368;28;20476;-76
2023/06/01 01:08:05;;;;;;;15.70;9.38;;;;;;;13.44;100.00;97835.75;5069254;28;20427;-75
2023/06/01 01:10:39;;;;;;;18.43;9.93;;;;;;;13.32;100.00;97819.66;5068942;28;20077;-76
2023/06/01 01:13:22;;;;;;;17.45;9.27;;;;;;;13.23;100.00;97837.25;5068912;28;20031;-74
2023/06/01 01:16:00;;;;;;;15.05;8.63;;;;;;;13.18;100.00;97823.28;5068847;28;20024;-74
2023/06/01 01:18:54;;;;;;;15.15;9.27;;;;;;;13.22;100.00;97840.91;5052099;28;20064;-74
2023/06/01 01:21:27;;;;;;;19.90;9.32;;;;;;;13.20;100.00;97839.25;5052547;28;20079;-75
2023/06/01 01:24:23;;;;;;;23.00;9.77;;;;;;;13.22;100.00;97846.28;5037004;28;20032;-75
2023/06/01 01:27:14;;;;;;;22.67;9.95;;;;;;;13.18;100.00;97834.03;5036284;28;20112;-75
2023/06/01 01:29:41;;;;;;;17.77;9.45;;;;;;;13.13;100.00;97830.78;5052509;28;20123;-75
2023/06/01 01:32:07;;;;;;;17.77;9.23;;;;;;;13.09;100.00;97828.41;5055838;28;20431;-75
2023/06/01 01:34:33;;;;;;;14.45;8.73;;;;;;;13.05;100.00;97830.41;5073658;28;20025;-75
2023/06/01 01:36:59;;;;;;;24.95;9.70;;;;;;;13.01;100.00;97831.59;5055893;28;20090;-75
2023/06/01 01:39:25;;;;;;;16.90;9.25;;;;;;;12.95;100.00;97826.63;5072360;28;20479;-75
2023/06/01 01:41:50;;;;;;;22.15;9.73;;;;;;;13.02;100.00;97834.16;5074136;28;20106;-76
2023/06/01 01:44:16;;;;;;;23.77;9.45;;;;;;;13.07;100.00;97839.22;5055617;28;20113;-74
2023/06/01 01:46:45;;;;;;;19.10;9.75;;;;;;;13.25;100.00;97843.38;5072519;28;20032;-74
2023/06/01 01:49:22;;;;;;;20.08;9.75;;;;;;;13.35;100.00;97847.16;5072406;28;20032;-74
2023/06/01 01:51:56;;;;;;;19.38;9.90;;;;;;;13.38;100.00;97846.09;5045461;28;20025;-75
2023/06/01 01:54:24;;;;;;;23.55;10.63;;;;;;;13.43;100.00;97839.44;5052442;28;20021;-75
2023/06/01 01:56:50;;;;;;;26.48;11.52;;;;;;;13.50;100.00;97840.72;5035581;28;20047;-76
2023/06/01 01:59:17;;;;;;;31.08;11.98;;;;;;;13.52;100.00;97840.63;5035782;28;20408;-75
2023/06/01 02:01:44;;;;;;;27.45;10.82;;;;;;;13.57;100.00;97846.53;5052217;28;20025;-75
2023/06/01 02:04:10;;;;;;;20.60;10.85;;;;;;;13.65;100.00;97846.03;5052316;28;20027;-75
2023/06/01 02:06:36;;;;;;;25.85;11.18;;;;;;;13.61;100.00;97844.50;5045952;28;20025;-75
2023/06/01 02:09:06;;;;;;;36.92;11.25;;;;;;;13.56;100.00;97839.47;5055329;28;20062;-76
2023/06/01 02:11:32;;;;;;;23.05;11.13;;;;;;;13.62;100.00;97849.78;5055498;28;20029;-77
2023/06/01 02:13:58;;;;;;;32.88;11.13;;;;;;;13.69;100.00;97850.22;5073311;28;20044;-74
2023/06/01 02:16:23;;;;;;;35.97;11.07;;;;;;;13.71;100.00;97853.66;5071732;28;20059;-75
2023/06/01 02:18:49;;;;;;;21.65;10.05;;;;;;;13.69;100.00;97855.59;5055086;28;20032;-74
2023/06/01 02:21:14;;;;;;;21.05;10.43;;;;;;;13.70;100.00;97860.84;5055110;28;20051;-76
2023/06/01 02:23:42;;;;;;;27.60;10.85;;;;;;;13.70;100.00;97850.09;5052347;28;20492;-75
2023/06/01 02:26:08;;;;;;;27.60;10.90;;;;;;;13.62;100.00;97857.84;5051756;28;20065;-75
2023/06/01 02:28:33;;;;;;;26.92;10.48;;;;;;;13.58;100.00;97859.88;5034864;28;20089;-74
2023/06/01 02:30:59;;;;;;;49.25;11.23;;;;;;;13.50;100.00;97859.53;5051389;28;20044;-75
2023/06/01 02:33:25;;;;;;;25.70;10.73;;;;;;;13.46;100.00;97859.88;5052871;28;20021;-75
2023/06/01 02:35:51;;;;;;;43.08;10.38;;;;;;;13.42;100.00;97864.59;5034990;28;20025;-75
2023/06/01 02:38:16;;;;;;;18.23;10.05;;;;;;;13.44;100.00;97870.69;5051618;28;20025;-75
2023/06/01 02:40:42;;;;;;;35.83;11.20;;;;;;;13.40;100.00;97861.16;5034738;28;20107;-74
2023/06/01 02:43:07;;;;;;;36.83;12.07;;;;;;;13.47;100.00;97875.88;5051825;28;20020;-75
2023/06/01 02:45:33;;;;;;;24.73;11.82;;;;;;;13.53;100.00;97877.31;5042906;28;20029;-75
2023/06/01 02:47:58;;;;;;;36.20;16.05;;;;;;;13.58;100.00;97870.63;5065536;28;20012;-75
2023/06/01 02:50:24;;;;;;;39.10;16.08;;;;;;;13.62;100.00;97876.66;5071465;28;20028;-74
2023/06/01 02:52:50;;;;;;;25.77;12.82;;;;;;;13.63;100.00;97882.91;5060833;28;20048;-75
2023/06/01 02:55:16;;;;;;;39.90;13.40;;;;;;;13.66;100.00;97880.00;5034666;28;20531;-76
2023/06/01 02:57:41;;;;;;;25.38;11.18;;;;;;;13.62;100.00;97878.50;5069622;28;20086;-76
2023/06/01 03:00:15;;;;;;;22.50;11.20;;;;;;;13.60;100.00;97878.59;5071032;28;20100;-75
2023/06/01 03:02:45;;;;;;;21.48;10.90;;;;;;;13.66;100.00;97875.47;5071038;28;20032;-75
2023/06/01 03:05:16;;;;;;;22.15;11.57;;;;;;;13.67;100.00;97862.91;5057018;28;20123;-75
2023/06/01 03:07:43;;;;;;;20.25;10.57;;;;;;;13.70;100.00;97868.91;5035143;28;20088;-76
2023/06/01 03:10:09;;;;;;;19.88;10.18;;;;;;;13.75;100.00;97865.94;5050701;28;20494;-75
2023/06/01 03:12:34;;;;;;;23.05;10.60;;;;;;;13.76;100.00;97864.94;5050942;28;20104;-76
2023/06/01 03:15:00;;;;;;;18.83;10.77;;;;;;;13.81;100.00;97868.19;5034109;28;20035;-74
2023/06/01 03:17:26;;;;;;;33.63;10.75;;;;;;;13.80;100.00;97870.00;5034173;28;20057;-75
2023/06/01 03:19:51;;;;;;;42.25;11.13;;;;;;;13.76;100.00;97865.81;5070927;28;20506;-75
2023/06/01 03:22:17;;;;;;;15.45;9.93;;;;;;;13.86;100.00;97868.72;5070328;28;20036;-74
2023/06/01 03:24:43;;;;;;;48.90;13.05;;;;;;;13.89;100.00;97868.50;5052895;28;20035;-74
2023/06/01 03:27:10;;;;;;;40.33;12.45;;;;;;;13.84;100.00;97870.66;5033950;28;20079;-75
2023/06/01 03:29:36;;;;;;;19.63;10.32;;;;;;;13.81;100.00;97860.97;5064662;28;20391;-78
2023/06/01 03:32:01;;;;;;;28.80;10.77;;;;;;;13.83;100.00;97868.94;5070306;28;20044;-76
2023/06/01 03:34:28;;;;;;;17.33;10.80;;;;;;;13.91;100.00;97863.88;5053899;28;20032;-76
2023/06/01 03:36:54;;;;;;;27.33;11.05;;;;;;;13.97;100.00;97868.81;5053670;28;20408;-76
2023/06/01 03:39:19;;;;;;;23.05;10.70;;;;;;;14.00;100.00;97850.63;5053387;28;20024;-75
2023/06/01 03:41:45;;;;;;;18.27;10.93;;;;;;;14.07;100.00;97861.81;5070260;28;20032;-75
2023/06/01 03:44:12;;;;;;;30.15;12.15;;;;;;;14.19;100.00;97869.03;5070239;28;20051;-75
2023/06/01 03:46:39;;;;;;;41.42;10.88;;;;;;;13.97;100.00;97869.69;5062132;28;20108;-75
2023/06/01 03:49:05;;;;;;;47.10;11.05;;;;;;;13.89;100.00;97863.13;5033205;28;20031;-77
2023/06/01 03:51:30;;;;;;;49.58;11.05;;;;;;;13.94;100.00;97860.97;5051381;28;20028;-76
2023/06/01 03:53:56;;;;;;;30.48;10.98;;;;;;;14.03;100.00;97860.31;5057691;28;20093;-76
2023/06/01 03:56:22;;;;;;;22.08;9.75;;;;;;;14.10;100.00;97858.91;5058656;28;20455;-76
2023/06/01 03:58:48;;;;;;;47.40;11.07;;;;;;;14.17;100.00;97868.28;5058953;28;20034;-75
2023/06/01 04:01:16;;;;;;;24.52;11.05;;;;;;;14.35;100.00;97869.69;5069771;28;20055;-75
2023/06/01 04:03:43;;;;;;;25.77;13.63;;;;;;;14.37;100.00;97859.66;5063003;28;20455;-75
2023/06/01 04:06:12;;;;;;;21.10;10.85;;;;;;;14.49;100.00;97852.53;5049695;28;20025;-75
2023/06/01 04:08:47;;;;;;;21.30;12.13;;;;;;;14.56;100.00;97843.91;5049886;28;20027;-76
2023/06/01 04:11:13;;;;;;;16.88;10.30;;;;;;;14.65;100.00;97831.59;5046150;28;20052;-75
2023/06/01 04:13:38;;;;;;;18.45;10.32;;;;;;;14.72;100.00;97832.88;5062152;28;20511;-76
2023/06/01 04:16:04;;;;;;;25.08;13.55;;;;;;;14.68;100.00;97825.13;5065783;28;20112;-75
2023/06/01 04:18:30;;;;;;;17.50;8.63;;;;;;;14.67;100.00;97821.59;5052912;28;20428;-75
2023/06/01 04:20:56;;;;;;;15.40;8.15;;;;;;;14.70;100.00;97815.97;5061561;28;20013;-76
2023/06/01 04:23:23;;;;;;;15.63;10.35;;;;;;;14.79;100.00;97809.91;5040006;28;20021;-74
2023/06/01 04:25:52;;;;;;;15.85;7.63;;;;;;;14.69;100.00;97808.84;5065510;28;20108;-75
2023/06/01 04:28:17;;;;;;;9.52;6.95;;;;;;;14.83;100.00;97797.03;5068003;28;20111;-75
2023/06/01 04:30:47;;;;;;;12.30;7.13;;;;;;;14.93;100.00;97796.25;5048119;28;20140;-74
2023/06/01 04:33:13;;;;;;;14.30;8.30;;;;;;;15.01;100.00;97793.00;5056062;28;20068;-75
2023/06/01 04:35:39;;;;;;;13.48;8.07;;;;;;;15.01;100.00;97779.50;5058215;28;20028;-75
2023/06/01 04:38:04;;;;;;;18.73;8.98;;;;;;;15.00;100.00;97788.56;5066092;28;20078;-75
2023/06/01 04:40:30;;;;;;;14.80;8.57;;;;;;;15.13;100.00;97775.88;5048496;28;20037;-75
2023/06/01 04:42:56;;;;;;;15.52;9.18;;;;;;;15.25;100.00;97763.28;5046300;28;20048;-77
2023/06/01 04:45:25;;;;;;;18.88;10.60;;;;;;;15.21;100.00;97765.38;5046150;28;20384;-76
2023/06/01 04:47:51;;;;;;;20.25;10.27;;;;;;;15.28;100.00;97761.22;5042221;28;20043;-76
2023/06/01 04:50:17;;;;;;;29.42;10.73;;;;;;;15.37;100.00;97759.66;5029413;28;20048;-76
2023/06/01 04:52:43;;;;;;;30.75;9.02;;;;;;;15.41;100.00;97761.97;5046467;28;20463;-76
2023/06/01 04:55:09;;;;;;;23.63;11.63;;;;;;;15.30;100.00;97748.47;5056789;28;20056;-76
2023/06/01 04:57:35;;;;;;;26.63;10.70;;;;;;;15.10;100.00;97746.47;5065129;28;20044;-74
2023/06/01 05:00:09;;;;;;;24.58;10.80;;;;;;;15.10;100.00;97765.34;5063000;28;20028;-76
2023/06/01 05:02:37;;;;;;;21.00;11.50;;;;;;;15.21;100.00;97768.06;5052159;28;20033;-76
2023/06/01 05:05:04;;;;;;;35.97;12.07;;;;;;;15.34;100.00;97760.75;5051829;28;20021;-77
2023/06/01 05:07:29;;;;;;;20.23;11.50;;;;;;;15.41;100.00;97761.13;5063857;28;20499;-77
2023/06/01 05:09:55;;;;;;;21.95;10.98;;;;;;;15.39;100.00;97753.16;5056368;28;20028;-76
2023/06/01 05:12:21;;;;;;;20.58;11.48;;;;;;;15.51;100.00;97746.84;5073127;28;20400;-77
2023/06/01 05:14:46;;;;;;;17.98;11.30;;;;;;;15.41;100.00;97740.41;5056045;28;20495;-76
2023/06/01 05:17:12;;;;;;;20.48;10.98;;;;;;;15.43;100.00;97737.59;5056328;28;20020;-77
2023/06/01 05:19:37;;;;;;;21.40;11.07;;;;;;;15.52;100.00;97731.53;5055443;28;20025;-76
2023/06/01 05:22:03;;;;;;;18.40;10.82;;;;;;;15.57;100.00;97730.16;5054222;28;20610;-76
2023/06/01 05:24:28;;;;;;;20.35;10.80;;;;;;;15.59;100.00;97730.94;5054069;28;20024;-76
2023/06/01 05:26:54;;;;;;;21.92;11.50;;;;;;;15.64;100.00;97725.16;5052964;28;20040;-77
2023/06/01 05:29:19;;;;;;;18.25;10.55;;;;;;;15.79;100.00;97717.66;5053965;28;20086;-77
2023/06/01 05:31:46;;;;;;;19.98;11.75;;;;;;;15.96;100.00;97719.88;5052511;28;20053;-77
2023/06/01 05:34:13;;;;;;;21.27;11.10;;;;;;;16.24;100.00;97708.56;5052854;28;20021;-77
2023/06/01 05:36:38;;;;;;;24.55;10.50;;;;;;;16.58;100.00;97702.09;5052636;28;20487;-77
2023/06/01 05:39:04;;;;;;;21.52;9.60;;;;;;;16.87;100.00;97686.13;5052460;28;20100;-77
2023/06/01 05:41:29;;;;;;;22.08;9.57;;;;;;;17.39;100.00;97677.09;5050073;28;20032;-77
2023/06/01 05:43:55;;;;;;;18.52;9.25;;;;;;;17.15;100.00;97668.41;5068660;28;20028;-77
2023/06/01 05:46:20;;;;;;;15.73;8.50;;;;;;;16.98;100.00;97669.84;5035990;28;20029;-77
2023/06/01 05:48:46;;;;;;;14.43;8.88;;;;;;;17.26;100.00;97671.91;5052229;28;20024;-77
2023/06/01 05:51:11;;;;;;;12.95;8.32;;;;;;;17.57;100.00;97661.97;5053546;28;20404;-77
2023/06/01 05:53:37;;;;;;;21.10;8.32;;;;;;;17.77;100.00;97665.63;5052350;28;20040;-77
2023/06/01 05:56:02;;;;;;;18.00;10.00;;;;;;;17.58;100.00;97666.41;5066049;28;20051;-77
2023/06/01 05:58:28;;;;;;;19.85;10.20;;;;;;;18.02;100.00;97667.88;5073374;28;20028;-77
2023/06/01 06:00:53;;;;;;;13.25;7.78;;;;;;;18.08;100.00;97658.34;5060557;28;20023;-77
2023/06/01 06:03:19;;;;;;;12.40;7.80;;;;;;;18.37;100.00;97648.41;5052302;28;20086;-78
2023/06/01 06:05:45;;;;;;;15.05;8.35;;;;;;;18.39;100.00;97643.72;5034831;28;20027;-78
2023/06/01 06:08:10;;;;;;;36.50;18.15;;;;;;;18.97;100.00;97641.03;5034914;28;20017;-77
2023/06/01 06:10:36;;;;;;;30.15;19.42;;;;;;;19.34;100.00;97634.69;5035484;28;20408;-77
2023/06/01 06:13:01;;;;;;;13.45;7.78;;;;;;;19.53;100.00;97630.22;5053179;28;20503;-78
2023/06/01 06:15:27;;;;;;;19.65;9.55;;;;;;;19.57;100.00;97628.91;5067662;28;20035;-77
2023/06/01 06:17:52;;;;;;;22.83;9.35;;;;;;;19.66;100.00;97620.72;5044352;28;20025;-77
2023/06/01 06:20:21;;;;;;;24.27;10.85;;;;;;;19.80;100.00;97622.94;5058681;28;20021;-77
2023/06/01 06:22:50;;;;;;;14.18;8.35;;;;;;;19.76;100.00;97629.69;5062165;28;20500;-77
2023/06/01 06:25:16;;;;;;;16.98;10.63;;;;;;;20.22;100.00;97619.69;5065938;28;20048;-77
2023/06/01 06:27:41;;;;;;;21.38;11.25;;;;;;;21.12;100.00;97609.56;5062051;28;20425;-76
2023/06/01 06:30:07;;;;;;;16.13;8.35;;;;;;;22.29;100.00;97602.50;5063588;28;20024;-76
2023/06/01 06:32:34;;;;;;;13.88;8.13;;;;;;;22.71;100.00;97589.66;5065480;28;20147;-77
2023/06/01 06:35:00;;;;;;;87.50;48.50;;;;;;;22.43;100.00;97582.75;5055708;28;20051;-77
2023/06/01 06:37:25;;;;;;;29.63;19.10;;;;;;;22.31;100.00;97592.28;5072017;28;20037;-78
2023/06/01 06:39:51;;;;;;;13.85;8.23;;;;;;;22.01;100.00;97591.00;5070560;28;20036;-77
2023/06/01 06:42:16;;;;;;;12.05;8.30;;;;;;;21.83;100.00;97601.13;5066050;28;20032;-77
2023/06/01 06:44:42;;;;;;;19.60;10.07;;;;;;;22.31;100.00;97604.03;5064483;28;20111;-77
2023/06/01 06:47:07;;;;;;;61.30;40.88;;;;;;;22.81;100.00;97600.41;5043259;28;20450;-78
2023/06/01 06:49:33;;;;;;;24.10;14.50;;;;;;;23.76;100.00;97600.47;5060199;28;20488;-77
2023/06/01 06:51:58;;;;;;;12.02;7.95;;;;;;;25.25;100.00;97592.75;5044738;28;20095;-78
2023/06/01 06:54:24;;;;;;;28.63;13.25;;;;;;;26.48;95.24;97584.81;5034720;28;20036;-76
2023/06/01 06:56:49;;;;;;;23.90;11.02;;;;;;;27.68;87.63;97570.09;5051649;28;20044;-76
2023/06/01 06:59:15;;;;;;;16.60;8.30;;;;;;;28.23;77.75;97555.41;5071391;28;20032;-76
2023/06/01 07:01:40;;;;;;;13.48;8.50;;;;;;;26.76;87.58;97569.28;5054521;28;20043;-76
2023/06/01 07:04:06;;;;;;;18.67;8.30;;;;;;;27.23;84.68;97563.19;5068219;28;20116;-76
2023/06/01 07:06:32;;;;;;;39.90;27.27;;;;;;;27.21;84.07;97549.66;5065950;28;20028;-77
2023/06/01 07:08:58;;;;;;;32.22;10.00;;;;;;;26.99;86.53;97558.97;5062880;28;20039;-77
2023/06/01 07:11:26;;;;;;;12.73;8.65;;;;;;;26.21;91.85;97562.53;5054474;28;20024;-77
2023/06/01 07:13:53;;;;;;;74.32;43.97;;;;;;;27.55;84.58;97551.63;5070707;28;20028;-77
2023/06/01 07:16:18;;;;;;;28.20;18.00;;;;;;;27.63;83.00;97556.94;5072278;28;20085;-76
2023/06/01 07:18:43;;;;;;;15.05;7.55;;;;;;;28.52;77.90;97544.06;5054490;28;20454;-76
2023/06/01 07:21:09;;;;;;;14.40;8.75;;;;;;;27.40;79.25;97532.47;5070585;28;20032;-77
2023/06/01 07:23:35;;;;;;;17.73;7.93;;;;;;;28.79;77.26;97554.13;5070970;28;20467;-76
2023/06/01 07:26:01;;;;;;;15.55;7.20;;;;;;;30.20;64.86;97534.28;5071483;28;20028;-77
2023/06/01 07:28:26;;;;;;;14.73;9.20;;;;;;;30.34;62.80;97527.59;5065939;28;20029;-77
2023/06/01 07:30:52;;;;;;;14.85;6.90;;;;;;;30.73;58.09;97518.28;5058411;28;20037;-76
2023/06/01 07:33:18;;;;;;;12.80;6.63;;;;;;;30.32;60.79;97512.34;5045830;28;20020;-76
2023/06/01 07:35:44;;;;;;;13.70;6.32;;;;;;;30.80;60.53;97526.50;5071829;28;20039;-76
2023/06/01 07:38:10;;;;;;;31.55;13.73;;;;;;;30.66;58.50;97511.97;5059642;28;20488;-76
2023/06/01 07:40:36;;;;;;;10.93;5.38;;;;;;;31.68;53.91;97506.03;5057457;28;20032;-76
2023/06/01 07:43:01;;;;;;;24.70;6.70;;;;;;;32.38;52.21;97512.88;5070240;28;20027;-77
2023/06/01 07:45:27;;;;;;;15.82;6.60;;;;;;;31.80;52.76;97487.59;5071848;28;20055;-78
2023/06/01 07:47:53;;;;;;;8.32;5.07;;;;;;;30.45;58.54;97493.81;5062158;28;20030;-76
2023/06/01 07:50:19;;;;;;;11.38;5.65;;;;;;;29.66;61.36;97487.72;5067011;28;20025;-77
2023/06/01 07:52:45;;;;;;;15.05;5.45;;;;;;;28.50;66.61;97480.97;5058677;28;20025;-77
2023/06/01 07:55:11;;;;;;;11.80;6.03;;;;;;;26.81;78.16;97476.22;5049830;28;20481;-77
2023/06/01 07:57:36;;;;;;;10.02;5.40;;;;;;;26.38;84.38;97489.09;5050219;28;20033;-77
2023/06/01 08:00:07;;;;;;;16.17;6.25;;;;;;;26.30;89.45;97508.44;5058825;28;20021;-76
2023/06/01 08:02:33;;;;;;;15.90;6.37;;;;;;;26.01;92.01;97503.84;5057253;28;20116;-77
2023/06/01 08:04:59;;;;;;;12.82;6.88;;;;;;;25.54;97.61;97504.28;5067984;28;20024;-77
2023/06/01 08:07:27;;;;;;;16.65;9.00;;;;;;;25.11;100.00;97510.53;5045227;28;20024;-77
2023/06/01 08:09:53;;;;;;;10.77;6.07;;;;;;;24.83;100.00;97513.03;5063696;28;20021;-76
2023/06/01 08:12:19;;;;;;;12.77;6.68;;;;;;;24.39;100.00;97522.97;5049868;28;20472;-76
2023/06/01 08:14:45;;;;;;;16.23;7.03;;;;;;;23.98;100.00;97536.84;5056023;28;20119;-77
2023/06/01 08:17:11;;;;;;;14.23;7.10;;;;;;;23.77;100.00;97538.47;5060158;28;20336;-76
2023/06/01 08:19:37;;;;;;;15.52;9.52;;;;;;;24.10;100.00;97540.88;5063248;28;20466;-77
2023/06/01 08:22:06;;;;;;;30.13;18.30;;;;;;;24.96;100.00;97535.16;5070269;28;20028;-76
2023/06/01 08:24:32;;;;;;;16.20;6.30;;;;;;;26.23;99.03;97532.19;5058937;28;20043;-77
2023/06/01 08:26:57;;;;;;;12.13;6.85;;;;;;;27.17;95.31;97542.84;5049089;28;20025;-77
2023/06/01 08:29:23;;;;;;;12.63;6.75;;;;;;;27.74;87.70;97523.41;5061107;28;20492;-77
2023/06/01 08:31:49;;;;;;;10.80;6.13;;;;;;;27.66;84.60;97514.47;5053349;28;20056;-77
2023/06/01 08:34:14;;;;;;;10.63;6.00;;;;;;;27.37;85.53;97505.41;5060539;28;20033;-77
2023/06/01 08:36:40;;;;;;;23.55;6.05;;;;;;;27.08;86.39;97504.75;5058417;28;20086;-77
2023/06/01 08:39:22;;;;;;;13.15;5.97;;;;;;;26.86;85.72;97488.31;5033090;28;20115;-76
2023/06/01 08:41:59;;;;;;;11.10;5.38;;;;;;;25.98;88.93;97490.50;5063966;28;20567;-77
2023/06/01 08:44:27;;;;;;;11.73;4.97;;;;;;;25.91;90.58;97484.09;5069565;28;20032;-76
2023/06/01 08:46:54;;;;;;;9.77;5.47;;;;;;;25.56;92.19;97480.28;5055403;28;20099;-76
2023/06/01 08:49:21;;;;;;;14.18;5.82;;;;;;;25.85;92.95;97490.34;5066217;28;20067;-76
2023/06/01 08:51:48;;;;;;;9.30;5.20;;;;;;;26.10;92.31;97497.19;5049655;28;20028;-76
2023/06/01 08:54:14;;;;;;;6.95;4.93;;;;;;;26.00;93.98;97490.31;5040921;28;20535;-77
2023/06/01 08:56:42;;;;;;;7.70;4.70;;;;;;;26.18;89.57;97485.31;5045116;28;20107;-76
2023/06/01 08:59:09;;;;;;;6.68;4.30;;;;;;;26.38;87.89;97484.47;5052813;28;20120;-76
2023/06/01 09:01:35;;;;;;;8.02;4.55;;;;;;;26.52;85.23;97479.94;5032507;28;20040;-76
2023/06/01 09:04:01;;;;;;;7.30;4.90;;;;;;;26.35;85.44;97478.50;5032651;28;20033;-77
2023/06/01 09:06:26;;;;;;;7.80;4.20;;;;;;;26.45;86.05;97476.31;5049260;28;20510;-77
2023/06/01 09:08:52;;;;;;;16.45;4.70;;;;;;;26.58;90.62;97492.03;5057794;28;20032;-77
2023/06/01 09:11:19;;;;;;;12.38;5.90;;;;;;;26.51;91.24;97485.63;5066477;28;20111;-77
2023/06/01 09:13:44;;;;;;;11.93;5.55;;;;;;;26.55;91.18;97492.44;5056953;28;20035;-77
2023/06/01 09:16:10;;;;;;;9.88;6.05;;;;;;;26.90;91.87;97486.00;5040314;28;20028;-76
2023/06/01 09:18:36;;;;;;;10.00;5.47;;;;;;;27.03;89.81;97485.28;5052370;28;20095;-76
2023/06/01 09:21:11;;;;;;;5.35;4.50;;;;;;;26.66;90.81;97478.19;5044399;28;20039;-76
2023/06/01 09:23:37;;;;;;;7.90;4.43;;;;;;;27.36;87.79;97475.34;5070260;28;20044;-76
2023/06/01 09:26:09;;;;;;;9.30;4.18;;;;;;;27.68;86.61;97485.75;5068998;28;20024;-77
2023/06/01 09:28:53;;;;;;;10.85;4.40;;;;;;;27.84;84.35;97473.53;5050955;28;20113;-77
2023/06/01 09:31:41;;;;;;;8.40;4.00;;;;;;;30.06;74.63;97499.50;5069770;28;20487;-76
2023/06/01 09:34:20;;;;;;;7.47;3.90;;;;;;;30.83;64.13;97470.81;5062119;28;20476;-76
2023/06/01 09:36:50;;;;;;;9.00;6.18;;;;;;;30.20;70.50;97469.94;5034140;28;20112;-78
2023/06/01 09:39:18;;;;;;;5.30;4.40;;;;;;;29.61;70.04;97450.84;5033046;28;20031;-76
2023/06/01 09:41:52;;;;;;;8.07;4.38;;;;;;;29.03;75.01;97451.56;5052492;28;20033;-76
2023/06/01 09:44:34;;;;;;;55.00;35.15;;;;;;;28.81;78.36;97460.25;5071575;28;20032;-77
2023/06/01 09:47:04;;;;;;;5.13;4.05;;;;;;;28.15;82.54;97460.13;5059319;28;20020;-77
2023/06/01 09:49:38;;;;;;;6.28;4.40;;;;;;;28.01;85.24;97458.38;5055596;28;20063;-76
2023/06/01 09:52:04;;;;;;;15.68;4.55;;;;;;;30.33;70.30;97470.69;5055656;28;20033;-76
2023/06/01 09:54:32;;;;;;;7.25;3.72;;;;;;;31.65;61.24;97468.59;5068564;28;20055;-77
2023/06/01 09:56:58;;;;;;;7.35;4.32;;;;;;;32.51;58.53;97462.81;5067050;28;20025;-77
2023/06/01 09:59:25;;;;;;;13.27;4.57;;;;;;;33.49;53.56;97462.31;5055706;28;20135;-78
2023/06/01 10:01:55;;;;;;;5.68;4.15;;;;;;;34.39;50.84;97466.28;5072451;28;20404;-77
2023/06/01 10:04:23;;;;;;;9.45;4.28;;;;;;;34.13;48.51;97427.94;5055291;28;20035;-77
2023/06/01 10:06:53;;;;;;;7.03;3.92;;;;;;;34.21;47.42;97420.06;5055568;28;20031;-76
2023/06/01 10:09:20;;;;;;;5.93;4.75;;;;;;;34.79;41.01;97389.19;5055874;28;20468;-76
2023/06/01 10:11:47;;;;;;;10.43;4.53;;;;;;;35.56;39.37;97400.44;5055662;28;20028;-74
2023/06/01 10:14:14;;;;;;;5.68;3.97;;;;;;;36.72;37.71;97392.66;5072017;28;20484;-74
2023/06/01 10:16:41;;;;;;;11.07;4.82;;;;;;;36.88;38.08;97391.72;5072008;28;20381;-75
2023/06/01 10:19:11;;;;;;;8.77;4.50;;;;;;;37.55;34.85;97379.94;5038588;28;20112;-76
2023/06/01 10:21:37;;;;;;;6.40;5.07;;;;;;;37.78;35.34;97371.97;5035327;28;20025;-75
2023/06/01 10:24:15;;;;;;;6.53;4.50;;;;;;;36.79;35.86;97357.84;5035173;28;20036;-74
2023/06/01 10:27:06;;;;;;;13.15;4.80;;;;;;;35.05;37.90;97336.75;5051733;28;20028;-75
2023/06/01 10:29:33;;;;;;;20.40;12.77;;;;;;;34.20;39.86;97325.88;5049140;28;20028;-76
2023/06/01 10:45:40;;;;;;;8.68;4.53;;;;;;;31.49;47.94;97355.81;5128310;27;20393;-73
2023/06/01 10:48:11;;;;;;;5.28;4.18;;;;;;;30.44;50.82;97342.16;5127514;28;20023;-72
2023/06/01 10:50:38;;;;;;;6.50;4.63;;;;;;;30.26;56.33;97361.38;5110153;28;20034;-72
2023/06/01 10:53:23;;;;;;;5.88;4.10;;;;;;;32.05;52.07;97380.41;5110001;28;20035;-73
2023/06/01 10:56:24;;;;;;;6.63;4.60;;;;;;;32.92;53.98;97397.38;5126988;27;20035;-71
2023/06/01 10:59:19;;;;;;;10.13;5.80;;;;;;;31.20;67.26;97386.09;5127345;28;20027;-74
2023/06/01 11:01:45;;;;;;;12.32;4.75;;;;;;;29.79;73.86;97380.09;5092523;28;20459;-73
2023/06/01 11:04:13;;;;;;;11.52;5.90;;;;;;;29.86;77.27;97393.91;5126905;28;20118;-81
2023/06/01 11:06:40;;;;;;;8.98;5.45;;;;;;;29.62;81.82;97400.13;5109910;28;20039;-73
2023/06/01 11:09:08;;;;;;;18.58;12.02;;;;;;;29.79;85.07;97418.72;5110130;28;20054;-79
2023/06/01 11:11:50;;;;;;;10.48;5.50;;;;;;;29.91;84.18;97413.38;5108169;28;20429;-75
2023/06/01 11:14:17;;;;;;;;;;;;;;;29.53;82.91;97410.56;5125945;27;20031;-74
2023/06/01 11:16:42;;;;;;;9.93;5.88;;;;;;;29.18;86.96;97407.25;5124229;27;20342;-74
2023/06/01 11:19:09;;;;;;;6.78;4.53;;;;;;;28.59;89.11;97406.41;5123980;28;20035;-73
2023/06/01 11:21:42;;;;;;;6.57;4.97;;;;;;;28.49;90.74;97415.94;5124242;28;20455;-74
2023/06/01 11:24:18;;;;;;;8.88;4.95;;;;;;;28.18;94.10;97423.13;5107053;28;20030;-73
2023/06/01 11:26:48;;;;;;;7.70;5.15;;;;;;;27.88;96.56;97420.66;5124031;28;20034;-73
2023/06/01 11:29:18;;;;;;;8.73;4.85;;;;;;;27.43;100.00;97424.06;5123626;28;20104;-74
2023/06/01 11:31:48;;;;;;;9.23;5.80;;;;;;;27.00;100.00;97430.75;5125176;27;20062;-74
2023/06/01 11:34:17;;;;;;;9.05;5.15;;;;;;;26.87;100.00;97437.00;5123492;28;20126;-73
2023/06/01 11:36:50;;;;;;;6.70;4.88;;;;;;;26.25;100.00;97437.69;5106761;28;20035;-73
2023/06/01 11:39:20;;;;;;;7.57;5.40;;;;;;;25.99;100.00;97442.00;5123652;28;20519;-73